createdAt,value
2019-04-30T00:04:03.256Z,19.73
2019-04-30T00:08:59.983Z,20.27
2019-04-30T00:13:58.843Z,21.17
2019-04-30T00:18:59.853Z,21.90
2019-04-30T00:23:51.279Z,22.37
2019-04-30T00:28:47.870Z,23.80
2019-04-30T00:33:44.930Z,23.40
2019-04-30T00:38:41.144Z,22.10
2019-04-30T00:43:37.656Z,24.00
2019-04-30T00:48:35.671Z,24.30
2019-04-30T00:53:31.514Z,23.57
2019-04-30T00:58:30.186Z,25.87
2019-04-30T01:03:26.957Z,28.50
2019-04-30T01:08:27.221Z,26.80
2019-04-30T01:13:20.888Z,26.73
2019-04-30T01:18:16.768Z,29.50
2019-04-30T01:23:14.155Z,31.47
2019-04-30T01:28:10.811Z,29.20
2019-04-30T01:33:06.717Z,30.30
2019-04-30T01:38:04.123Z,30.60
2019-04-30T01:43:00.745Z,33.07
2019-04-30T01:48:00.596Z,33.57
2019-04-30T01:52:54.254Z,33.90
2019-04-30T01:58:04.011Z,31.80
2019-04-30T02:02:59.926Z,31.93
2019-04-30T02:07:55.901Z,28.57
2019-04-30T02:12:52.575Z,28.23
2019-04-30T02:17:50.213Z,26.80
2019-04-30T02:22:46.311Z,28.90
2019-04-30T02:27:42.203Z,31.63
2019-04-30T02:32:39.532Z,33.93
2019-04-30T02:37:39.960Z,35.63
2019-04-30T02:42:35.866Z,35.47
2019-04-30T02:47:32.042Z,35.20
2019-04-30T02:52:29.386Z,38.30
2019-04-30T02:57:25.649Z,36.43
2019-04-30T03:02:21.462Z,37.17
2019-04-30T03:07:19.377Z,37.27
2019-04-30T03:12:15.989Z,36.27
2019-04-30T03:17:13.973Z,33.63
2019-04-30T03:27:16.245Z,34.90
2019-04-30T03:32:14.240Z,33.60
2019-04-30T03:37:10.494Z,32.67
2019-04-30T03:42:06.832Z,32.67
2019-04-30T03:47:02.745Z,34.83
2019-04-30T03:51:59.804Z,30.83
2019-04-30T03:57:00.396Z,32.73
2019-04-30T04:02:09.376Z,32.03
2019-04-30T04:07:22.604Z,34.73
2019-04-30T04:12:23.132Z,33.10
2019-04-30T04:17:20.343Z,31.67
2019-04-30T04:22:16.539Z,31.37
2019-04-30T04:27:12.465Z,33.40
2019-04-30T04:32:10.647Z,32.90
2019-04-30T04:37:09.897Z,33.43
2019-04-30T04:42:04.945Z,31.20
2019-04-30T04:47:00.983Z,29.03
2019-04-30T04:51:59.065Z,29.23
2019-04-30T04:57:10.972Z,27.17
2019-04-30T05:01:52.693Z,26.30
2019-04-30T05:06:49.831Z,26.90
2019-04-30T05:11:45.868Z,29.87
2019-04-30T05:16:41.928Z,26.67
2019-04-30T05:21:42.734Z,25.83
2019-04-30T05:26:36.315Z,23.97
2019-04-30T05:31:32.256Z,24.77
2019-04-30T05:36:29.246Z,23.93
2019-04-30T05:41:25.143Z,23.90
2019-04-30T05:46:21.294Z,22.83
2019-04-30T05:51:19.281Z,20.70
2019-04-30T05:56:14.981Z,20.37
2019-04-30T06:01:10.824Z,22.23
2019-04-30T06:06:08.833Z,20.67
2019-04-30T06:11:15.456Z,22.87
2019-04-30T06:16:13.307Z,19.60
2019-04-30T06:21:09.998Z,21.67
2019-04-30T06:26:09.663Z,20.90
2019-04-30T06:31:03.894Z,20.47
2019-04-30T06:36:00.331Z,19.27
2019-04-30T06:40:56.430Z,20.13
2019-04-30T06:45:52.558Z,16.17
2019-04-30T06:50:49.292Z,18.20
2019-04-30T06:55:45.251Z,16.03
2019-04-30T07:00:41.314Z,16.20
2019-04-30T07:05:38.931Z,16.97
2019-04-30T07:10:36.306Z,16.37
2019-04-30T07:15:32.148Z,15.87
2019-04-30T07:20:29.148Z,15.60
2019-04-30T07:25:25.051Z,15.10
2019-04-30T07:30:21.049Z,14.87
2019-04-30T07:35:19.332Z,14.97
2019-04-30T07:40:15.064Z,13.90
2019-04-30T07:45:10.997Z,13.70
2019-04-30T07:50:08.110Z,13.20
2019-04-30T07:55:05.110Z,14.30
2019-04-30T08:00:01.179Z,13.57
2019-04-30T08:05:01.804Z,13.33
2019-04-30T08:09:59.011Z,12.30
2019-04-30T08:14:54.981Z,13.10
2019-04-30T08:19:51.356Z,10.83
2019-04-30T08:24:49.142Z,12.13
2019-04-30T08:29:45.363Z,13.17
2019-04-30T08:34:41.487Z,14.73
2019-04-30T08:39:39.593Z,14.40
2019-04-30T08:44:35.106Z,15.20
2019-04-30T08:49:31.516Z,14.47
2019-04-30T08:54:29.395Z,14.37
2019-04-30T08:59:25.498Z,14.80
2019-04-30T09:04:21.334Z,13.93
2019-04-30T09:09:18.808Z,14.17
2019-04-30T09:14:14.914Z,14.07
2019-04-30T09:19:11.069Z,13.60
2019-04-30T09:24:09.395Z,14.40
2019-04-30T09:29:05.561Z,13.10
2019-04-30T09:34:14.011Z,11.88
2019-04-30T09:39:01.526Z,12.73
2019-04-30T09:43:56.948Z,13.60
2019-04-30T09:48:53.030Z,13.28
2019-04-30T09:53:56.805Z,14.10
2019-04-30T09:58:49.144Z,13.30
2019-04-30T10:03:45.218Z,13.30
2019-04-30T10:08:48.440Z,13.10
2019-04-30T10:13:40.065Z,12.40
2019-04-30T10:18:36.303Z,12.73
2019-04-30T10:23:32.355Z,12.90
2019-04-30T10:28:28.613Z,12.53
2019-04-30T10:33:24.539Z,13.22
2019-04-30T10:38:20.553Z,12.25
2019-04-30T10:43:16.474Z,12.53
2019-04-30T10:48:12.590Z,13.00
2019-04-30T10:53:09.157Z,12.45
2019-04-30T10:58:05.751Z,13.70
2019-04-30T11:03:01.675Z,13.10
2019-04-30T11:07:59.399Z,12.87
2019-04-30T11:12:55.450Z,12.43
2019-04-30T11:17:51.647Z,13.17
2019-04-30T11:22:48.200Z,12.60
2019-04-30T11:27:44.957Z,11.53
2019-04-30T11:32:41.391Z,11.83
2019-04-30T11:37:37.798Z,12.05
2019-04-30T11:42:33.733Z,12.33
2019-04-30T11:47:31.596Z,12.00
2019-04-30T11:52:27.538Z,11.33
2019-04-30T11:57:23.717Z,12.23
2019-04-30T12:02:21.639Z,11.57
2019-04-30T12:07:19.595Z,11.03
2019-04-30T12:12:15.814Z,11.12
2019-04-30T12:17:11.692Z,11.30
2019-04-30T12:22:07.534Z,11.12
2019-04-30T12:27:03.912Z,10.32
2019-04-30T12:31:59.854Z,10.20
2019-04-30T12:36:55.933Z,10.65
2019-04-30T12:41:51.778Z,11.15
2019-04-30T12:46:48.664Z,9.53
2019-04-30T12:52:02.823Z,9.35
2019-04-30T12:57:11.186Z,10.08
2019-04-30T13:02:09.010Z,9.50
2019-04-30T13:07:05.589Z,8.90
2019-04-30T13:12:02.571Z,9.33
2019-04-30T13:17:00.455Z,9.18
2019-04-30T13:21:58.615Z,8.05
2019-04-30T13:26:54.439Z,8.00
2019-04-30T13:31:50.488Z,8.60
2019-04-30T13:36:47.025Z,8.78
2019-04-30T13:41:46.216Z,8.15
2019-04-30T13:46:43.550Z,8.20
2019-04-30T13:51:39.762Z,8.50
2019-04-30T13:56:35.979Z,8.03
2019-04-30T14:01:31.820Z,7.67
2019-04-30T14:06:35.697Z,7.20
2019-04-30T14:11:31.634Z,7.50
2019-04-30T14:16:27.759Z,8.28
2019-04-30T14:21:34.665Z,7.78
2019-04-30T14:26:21.667Z,6.72
2019-04-30T14:31:18.665Z,6.92
2019-04-30T14:36:16.297Z,6.73
2019-04-30T14:41:12.930Z,6.83
2019-04-30T14:46:26.204Z,6.47
2019-04-30T14:51:22.259Z,6.57
2019-04-30T14:56:23.204Z,6.97
2019-04-30T15:01:21.029Z,6.60
2019-04-30T15:06:17.096Z,6.30
2019-04-30T15:11:12.923Z,6.33
2019-04-30T15:16:08.945Z,5.72
2019-04-30T15:21:04.774Z,5.12
2019-04-30T15:26:00.829Z,5.30
2019-04-30T15:30:58.579Z,5.72
2019-04-30T15:35:54.813Z,5.00
2019-04-30T15:40:50.734Z,4.67
2019-04-30T15:45:46.794Z,5.40
2019-04-30T15:50:42.711Z,5.45
2019-04-30T15:55:38.800Z,4.33
2019-04-30T16:00:35.177Z,4.40
2019-04-30T16:05:33.289Z,4.65
2019-04-30T16:10:36.992Z,4.12
2019-04-30T16:15:32.934Z,4.28
2019-04-30T16:20:30.092Z,4.28
2019-04-30T16:25:26.300Z,4.03
2019-04-30T16:30:22.681Z,3.50
2019-04-30T16:35:19.679Z,3.80
2019-04-30T16:40:15.954Z,3.60
2019-04-30T16:45:11.890Z,3.60
2019-04-30T16:50:09.014Z,3.60
2019-04-30T16:55:05.578Z,3.57
2019-04-30T17:00:02.835Z,2.77
2019-04-30T17:05:00.696Z,2.27
2019-04-30T17:10:01.286Z,2.43
2019-04-30T17:15:05.781Z,2.70
2019-04-30T17:20:02.813Z,2.10
2019-04-30T17:24:58.973Z,2.60
2019-04-30T17:29:54.814Z,2.17
2019-04-30T17:34:51.445Z,2.60
2019-04-30T17:39:49.093Z,2.30
2019-04-30T17:44:56.347Z,2.40
2019-04-30T17:49:42.976Z,2.80
2019-04-30T17:54:39.574Z,2.10
2019-04-30T17:59:35.419Z,5.30
2019-04-30T18:04:32.130Z,2.83
2019-04-30T18:09:29.210Z,2.40
2019-04-30T18:14:25.025Z,2.40
2019-04-30T18:19:23.096Z,2.70
2019-04-30T18:24:29.806Z,2.50
2019-04-30T18:29:25.730Z,2.60
2019-04-30T18:34:21.903Z,3.80
2019-04-30T18:39:18.901Z,2.97
2019-04-30T18:44:15.287Z,2.70
2019-04-30T18:49:11.259Z,2.77
2019-04-30T18:54:07.285Z,2.60
2019-04-30T18:59:03.206Z,3.80
2019-04-30T19:04:01.179Z,2.90
2019-04-30T19:09:05.783Z,3.33
2019-04-30T19:14:20.527Z,2.90
2019-04-30T19:19:35.044Z,2.90
2019-04-30T19:24:31.099Z,2.63
2019-04-30T19:29:27.311Z,2.33
2019-04-30T19:34:23.543Z,2.40
2019-04-30T19:39:20.930Z,2.73
2019-04-30T19:44:16.779Z,2.20
2019-04-30T19:49:12.731Z,2.50
2019-04-30T19:54:08.689Z,2.47
2019-04-30T19:59:05.785Z,2.33
2019-04-30T20:04:01.660Z,2.70
2019-04-30T20:13:53.972Z,2.53
2019-04-30T20:18:50.048Z,2.80
2019-04-30T20:23:45.864Z,2.90
2019-04-30T20:28:42.582Z,3.13
2019-04-30T20:33:38.911Z,3.20
2019-04-30T20:38:36.785Z,3.30
2019-04-30T20:43:32.730Z,3.10
2019-04-30T20:48:29.960Z,3.70
2019-04-30T20:53:25.946Z,3.57
2019-04-30T20:58:22.110Z,3.17
2019-04-30T21:03:19.631Z,3.00
2019-04-30T21:08:15.830Z,3.30
2019-04-30T21:13:12.662Z,3.10
2019-04-30T21:18:09.466Z,3.50
2019-04-30T21:23:05.374Z,5.97
2019-04-30T21:28:01.436Z,3.60
2019-04-30T21:33:02.043Z,3.47
2019-04-30T21:38:01.663Z,3.37
2019-04-30T21:42:57.638Z,4.93
2019-04-30T21:47:56.548Z,5.60
2019-04-30T21:52:51.354Z,5.27
2019-04-30T21:57:49.532Z,3.97
2019-04-30T22:02:45.274Z,3.63
2019-04-30T22:07:41.346Z,3.40
2019-04-30T22:12:38.908Z,4.00
2019-04-30T22:17:35.502Z,3.43
2019-04-30T22:22:31.702Z,3.67
2019-04-30T22:27:27.768Z,3.77
2019-04-30T22:32:23.606Z,3.80
2019-04-30T22:37:19.784Z,3.60
2019-04-30T22:42:26.591Z,3.80
2019-04-30T22:47:22.461Z,3.60
2019-04-30T22:52:21.786Z,3.77
2019-04-30T22:57:16.551Z,3.50
2019-04-30T23:02:14.497Z,3.87
2019-04-30T23:07:10.694Z,3.60
2019-04-30T23:12:06.819Z,4.27
2019-04-30T23:17:02.870Z,3.60
2019-04-30T23:21:59.635Z,3.83
2019-04-30T23:26:55.684Z,3.77
2019-04-30T23:31:51.519Z,4.37
2019-04-30T23:36:47.582Z,4.00
2019-04-30T23:41:43.406Z,5.00
2019-04-30T23:46:39.525Z,3.83
2019-04-30T23:51:35.353Z,4.00
2019-04-30T23:56:31.440Z,3.60
